Barcroft Research Lab Weather observations

Data are for 10 minute period ending at time listed.
 Day   Time   Solar   Ave.   Ave.  Ave.  Vector  Std.   Max.    Baro.    
  of    of     Rad.   Air    Rel.  Wind   Wind   Dev.   Wind   Press.    
Year   Day            Temp.  Hum.  Speed  Dir.   Dir.   Gust            
2016   (PST)  Kw/m2    F      %     mph   deg.   deg.    mph     mb.    
------------------------------------------------------------------------
 273    5:40       2   31.0    81    5.8   289    -99     6.6   648.70  
 273    5:50       8   31.9    81    4.8   291    -99     5.8   648.70  
 273    6:00      31   33.3    77    3.8   295    -99     4.7   648.70  
 273    6:10      72   35.1    73    2.8   309    -99     3.7   649.00  
 273    6:20      95   36.8    66    2.3   306    -99     3.5   649.00  
 273    6:30     123   36.9    63    2.7   329    -99     4.2   649.00  
 273    6:40     162   36.9    65    2.2     6    -99     4.1   649.00  
 273    6:50     191   37.7    64    2.5    28    -99     4.8   649.00  
 273    7:00     217   37.9    65    1.5    58    -99     5.0   649.00  
 273    7:10     249   38.9    64    2.5    62    -99     6.4   649.30  
 273    7:20     282   39.2    63    2.1    91    -99     3.9   649.30  
 273    7:30     317   39.2    63    3.1    46    -99     5.4   649.30  
 273    7:40     349   39.5    62    2.9    80    -99     5.3   649.30  
 273    7:50     382   40.2    60    3.5    88    -99     5.0   649.30  
 273    8:00     415   41.2    58    3.9    88    -99     7.1   649.30  
 273    8:10     453   41.3    58    3.7    78    -99     7.7   649.60  
 273    8:20     492   41.0    59    4.6    62    -99     8.6   649.60  
 273    8:30     532   40.9    58    3.7    66    -99     8.6   649.60  
 273    8:40     550   41.5    58    4.4    48    -99     8.8   649.60  
 273    8:50     588   41.5    58    4.1    60    -99     7.3   649.60  
 273    9:00     644   42.3    56    4.4    63    -99     9.6   649.60  
 273    9:10     689   42.1    57    5.0    45    -99     9.6   650.00  
 273    9:20     561   41.8    58    5.9    40    -99    10.5   650.00  
 273    9:30     497   42.0    58    5.2    66    -99     8.5   650.00  
 273    9:40     233   42.5    59    5.5   108    -99    12.3   650.00  
 273    9:50     215   41.7    65    4.5   125    -99    12.7   650.00  
 273   10:00     246   40.3    72    4.5   163    -99    13.5   650.00  
 273   10:10     212   39.6    75    2.8   179    -99     7.3   650.20  
 273   10:20      96   39.8    74    4.4   122    -99    10.4   650.20  
 273   10:30      91   38.8    78    4.5   167    -99     8.9   650.20  
 273   10:40      99   38.0    83    2.6   207    -99     6.7   650.20  
 273   10:50     104   37.7    84    1.6   300    -99     7.3   650.20  
 273   11:00      72   36.9    90    3.4   316    -99     8.4   650.20  
 273   11:10      79   36.0    94    1.7    72    -99     5.0   650.30  
 273   11:20      87   35.6    96    1.0    75    -99     2.1   650.30  
 273   11:30     141   35.8    97    2.8   120    -99     6.1   650.30  
 273   11:40     294   36.8    96    4.0   139    -99     7.8   650.30  
 273   11:50     256   37.1    92    4.1   115    -99     7.1   650.30  
 273   12:00     452   37.5    92    1.9   123    -99     5.6   650.30  
 273   12:10     468   38.8    88    1.3   211    -99     4.9   650.20  
 273   12:20     407   39.4    84    3.1   228    -99    10.1   650.20  
 273   12:30     452   40.9    79    4.3   222    -99     9.6   650.20  
 273   12:40     519   40.9    76    5.3   237    -99    11.1   650.20  
 273   12:50     345   41.1    77    3.7   269    -99     7.5   650.20  
 273   13:00     569   41.4    74    4.4   287    -99    12.6   650.20  
 273   13:10     673   42.0    68    5.0   242    -99    16.8   649.90  
 273   13:20     655   42.9    65    6.6   231    -99    12.7   649.90  
 273   13:30     471   41.9    65    5.4   237    -99    11.5   649.90  
 273   13:40     630   43.7    63    5.7   243    -99    18.6   649.90  
 273   13:50     647   43.3    61    5.5   251    -99    11.4   649.90  
 273   14:00     537   43.8    59    6.3   238    -99    11.7   649.90  
 273   14:10     404   43.0    60    6.3   248    -99    11.5   649.90  
 273   14:20     454   42.9    59    7.3   232    -99    12.8   649.90  
 273   14:30     399   42.6    61    5.5   233    -99     9.4   649.90  
 273   14:40     618   44.2    56    6.4   236    -99    12.1   649.90  
 273   14:50     720   44.7    54    6.8   220    -99    14.5   649.90  
 273   15:00     514   44.4    55    7.2   228    -99    14.2   649.90  
 273   15:10     430   43.2    60    5.9   221    -99    15.9   649.70  
 273   15:20     350   43.7    60    7.0   231    -99    14.0   649.70  
 273   15:30     300   43.3    62    7.3   227    -99    13.8   649.70  
 273   15:40     227   42.0    69    8.7   230    -99    16.5   649.70  
 273   15:50     173   41.3    70   10.3   227    -99    17.7   649.70  
 273   16:00      98   40.5    73    9.8   231    -99    14.8   649.70  
 273   16:10     173   40.1    74   10.0   229    -99    13.9   649.60  
 273   16:20     128   40.1    73    8.7   224    -99    13.2   649.60  
 273   16:30      80   39.3    75    7.5   231    -99    14.8   649.60  
 273   16:40      62   39.2    75    7.2   227    -99    12.3   649.60  
 273   16:50      35   38.9    76    8.0   235    -99    14.8   649.60  
 273   17:00      35   38.9    76    7.0   254    -99    11.0   649.60  
 273   17:10      33   38.6    78    6.9   249    -99    11.5   649.70  
 273   17:20      17   38.4    78    6.3   239    -99    11.5   649.70  
 273   17:30       8   38.1    78    7.1   232    -99    11.5   649.70  
 273   17:40       4   37.9    79    7.1   249    -99    11.3   649.70  
 273   17:50       1   37.7    80    7.2   234    -99    10.8   649.70  
 273   18:00       0   37.5    82    5.3   245    -99     9.4   649.70  
 273   18:10       0   37.4    80    3.9   255    -99     7.9   649.60  
 273   18:20       0   37.2    81    5.2   257    -99     8.5   649.60  
 273   18:30       0   37.2    80    5.8   263    -99     7.8   649.60  
 273   18:40       0   37.0    80    5.2   271    -99     7.4   649.60  
 273   18:50       0   36.7    82    5.8   276    -99     7.7   649.60  
 273   19:00       0   36.5    83    6.6   266    -99     8.3   649.60  
 273   19:10       0   36.3    82    6.5   267    -99     8.6   649.80  
 273   19:20       0   36.1    80    7.0   268    -99     9.3   649.80  
 273   19:30       0   36.0    80    6.3   270    -99     8.4   649.80  
 273   19:40       0   35.6    81    6.5   281    -99     7.9   649.80  
 273   19:50       0   35.7    82    7.1   281    -99     8.6   649.80  
 273   20:00       0   35.6    83    6.5   281    -99     7.8   649.80  
 273   20:10       0   35.5    83    6.9   276    -99     7.9   650.00  
 273   20:20       0   35.2    84    7.2   282    -99     8.8   650.00  
 273   20:30       0   34.8    89    7.1   281    -99     8.3   650.00  
 273   20:40       0   34.6    89    7.2   272    -99     8.7   650.00  
 273   20:50       0   35.1    88    7.3   251    -99     9.9   650.00  
 273   21:00       0   35.7    86    7.1   256    -99     9.6   650.00  
 273   21:10       0   34.8    88    6.9   264    -99     8.6   650.00  
 273   21:20       0   34.5    89    5.9   262    -99     7.5   650.00  
 273   21:30       0   34.2    90    6.0   266    -99     8.2   650.00  
 273   21:40       0   35.0    88    7.3   255    -99     9.3   650.00  
 273   21:50       0   34.5    90    6.9   254    -99     9.5   650.00  
 273   22:00       0   35.2    89    6.8   247    -99     9.2   650.00  
 273   22:10       0   35.1    89    6.9   247    -99     8.6   650.00  
 273   22:20       0   35.0    90    7.2   246    -99     8.8   650.00  
 273   22:30       0   34.8    92    7.1   242    -99     9.3   650.00  
 273   22:40       0   34.7    92    6.9   241    -99     8.7   650.00  
 273   22:50       0   34.6    88    5.1   254    -99     7.2   650.00  
 273   23:00       0   34.6    82    3.7   257    -99     5.0   650.00  
 273   23:10       0   34.4    83    4.4   259    -99     5.3   649.90  
 273   23:20       0   33.9    86    4.2   258    -99     5.4   649.90  
 273   23:30       0   34.2    83    4.3   257    -99     5.0   649.90  
 273   23:40       0   34.7    81    4.1   256    -99     5.0   649.90  
 273   23:50       0   34.0    83    5.0   258    -99     6.1   649.90  
 274    0:00       0   34.3    83    5.5   254    -99     7.2   649.90  
 274    0:10       0   32.8    88    6.6   273    -99     7.9   649.70  
 274    0:20       0   32.5    90    5.8   263    -99     7.2   649.70  
 274    0:30       0   34.2    84    5.2   259    -99     6.6   649.70  
 274    0:40       0   34.4    83    4.8   256    -99     6.6   649.70  
 274    0:50       0   34.2    82    5.3   263    -99     6.8   649.70  
 274    1:00       0   33.9    83    4.5   254    -99     5.8   649.70  
 274    1:10       0   33.7    84    4.8   258    -99     6.1   649.60  
 274    1:20       0   33.7    85    5.0   256    -99     6.4   649.60  
 274    1:30       0   33.5    85    4.9   265    -99     6.1   649.60  
 274    1:40       0   33.3    85    4.7   259    -99     6.0   649.60  
 274    1:50       0   33.7    85    4.6   258    -99     5.8   649.60  
 274    2:00       0   33.6    86    4.3   258    -99     6.2   649.60  
 274    2:10       0   33.5    82    4.5   258    -99     6.5   649.30  
 274    2:20       0   34.0    78    5.3   249    -99     7.0   649.30  
 274    2:30       0   34.2    78    5.2   249    -99     7.2   649.30  
 274    2:40       0   33.8    84    4.8   250    -99     6.4   649.30  
 274    2:50       0   33.6    86    5.0   247    -99     6.0   649.30  
 274    3:00       0   33.5    87    5.3   247    -99     6.0   649.30  
 274    3:10       0   33.3    88    4.9   252    -99     6.1   649.20  
 274    3:20       0   33.5    89    4.4   248    -99     5.3   649.20  
 274    3:30       0   33.3    90    4.6   246    -99     5.8   649.20  
 274    3:40       0   33.0    90    4.7   246    -99     5.5   649.20  
 274    3:50       0   32.8    89    5.3   242    -99     6.4   649.20  
 274    4:00       0   32.5    90    5.3   242    -99     6.1   649.20  
 274    4:10       0   32.6    91    5.3   245    -99     6.1   649.20  
 274    4:20       0   33.3    90    5.4   244    -99     6.6   649.20  
 274    4:30       0   33.2    91    5.3   244    -99     6.4   649.20  
 274    4:40       0   32.9    92    5.9   242    -99     6.9   649.20  
 274    4:50       0   32.4    94    6.5   244    -99     8.3   649.20  
 274    5:00       0   32.7    94    6.6   245    -99     8.0   649.20  
 274    5:10       0   32.5    95    5.6   243    -99     7.1   649.00  
 274    5:20       0   31.3    98    6.2   236    -99     7.7   649.00  
 274    5:30       0   30.9   100    6.4   233    -99     7.8   649.00  

Return to Barcroft Research Lab graphs page.


Western Regional Climate Center,wrcc@dri.edu